Aérodrome :
LOGIN :

S'inscrire | Disclaimer

   EN    FR    IT 

 










Légende :    VFR   VFR Marginal   IFR   IFR Intensif   IFR Très Intensif
Visi : 
Plafond : 
>= 8 km
>= 3000ft
5 à 8 km
1000 à 3000 ft
1500m à 5 km
500 à 1000 ft
800 à 1500m
200 à 500 ft
< 800m
< 200 ft
Symboles :   Orages  Brouillard  Fortes neiges  Fortes précipitations  Vent > 20 kt
SIGMETs :   Divers  Orages  Givrage  Turbulence  Onde Orograph.  Cendres Volcan.







- Altitude de l'aérodrome : 233 ft
- Code IATA : REU


LERS - Reus Tarragona

DERNIER METAR :
  • 180300Z AUTO 36005KT 9999 SCT022/// BKN050/// 19/18 Q1017

METARs EXPIRÉS :
  • 180230Z AUTO 36005KT 8000 -RA SCT018/// BKN024/// BKN047/// 19/18 Q1017
  • 180200Z AUTO 36004KT 9999 FEW018/// 19/18 Q1017
  • 180130Z AUTO 36004KT 9999 SCT023/// SCT033/// BKN046/// 19/18 Q1018
  • 180100Z AUTO 36002KT 9999 BKN021/// BKN034/// 20/18 Q1018
  • 180030Z AUTO VRB01KT 9999 BKN022/// OVC035/// 20/19 Q1018

TAF TAF LERS
Valide du 18 à 03h jusqu'au 19 à 03h UTC


180200Z 1803/1903 VRB05KT 9999 BKN016 TX22/1813Z TN15/1806Z
BECMG 1808/1810 14010KT
TEMPO 1803/1824 4000 TSRA BKN012 SCT015CB
PROB40
TEMPO 1803/1822 3000 +TSRA BKN012 SCT015CB
Pas de NOTAMs connus pour ce terrain.



MET'MAP, la Météo Aéronautique d'un coup d'oeil ! - Copyright ORBIFLY Décembre 2007 - Disclaimer

ORBIFLY MET'MAP TEAM :

Programmation & Développement : Alexandra Zaïnal
Conception & Développement : Baudouin d'Aumeries
Co-Programmation & Développement : Marc-Olivier Méhu
Soutien technique & logistique : Manuel Goepfert

Contact : metmap@orbifly.com




SOURCES & CREDITS :

   NOAA